createdAt,value
2018-06-04T00:02:24.878Z,14.00
2018-06-04T00:04:53.560Z,13.90
2018-06-04T00:07:22.130Z,13.90
2018-06-04T00:09:50.760Z,13.80
2018-06-04T00:12:19.523Z,14.00
2018-06-04T00:17:16.627Z,13.90
2018-06-04T00:19:45.313Z,13.90
2018-06-04T00:22:13.828Z,14.00
2018-06-04T00:24:42.356Z,13.90
2018-06-04T00:27:10.939Z,13.80
2018-06-04T00:29:39.489Z,13.70
2018-06-04T00:32:08.086Z,13.70
2018-06-04T00:34:36.699Z,13.60
2018-06-04T00:37:05.465Z,13.60
2018-06-04T00:39:34.209Z,13.60
2018-06-04T00:42:02.922Z,13.50
2018-06-04T00:46:59.644Z,13.50
2018-06-04T00:49:28.157Z,13.40
2018-06-04T00:51:56.954Z,13.40
2018-06-04T00:54:25.497Z,13.30
2018-06-04T00:56:54.101Z,13.40
2018-06-04T00:59:22.597Z,13.40
2018-06-04T01:01:51.215Z,10.50
2018-06-04T01:04:19.720Z,13.30
2018-06-04T01:06:48.431Z,13.30
2018-06-04T01:09:16.904Z,13.20
2018-06-04T01:11:45.591Z,13.20
2018-06-04T01:14:14.427Z,13.30
2018-06-04T01:16:42.944Z,13.20
2018-06-04T01:19:11.758Z,13.30
2018-06-04T01:21:40.439Z,13.30
2018-06-04T01:24:09.477Z,13.30
2018-06-04T01:29:06.514Z,13.10
2018-06-04T01:31:35.476Z,13.10
2018-06-04T01:34:04.010Z,13.10
2018-06-04T01:36:32.659Z,13.10
2018-06-04T01:39:01.436Z,13.00
2018-06-04T01:41:30.000Z,12.90
2018-06-04T01:43:58.535Z,12.90
2018-06-04T01:46:27.034Z,12.80
2018-06-04T01:48:55.645Z,12.80
2018-06-04T01:51:24.326Z,12.80
2018-06-04T01:53:52.855Z,12.80
2018-06-04T01:56:21.384Z,12.80
2018-06-04T01:58:50.041Z,12.80
2018-06-04T02:01:18.940Z,12.80
2018-06-04T02:03:47.406Z,12.70
2018-06-04T02:08:44.128Z,12.70
2018-06-04T02:11:12.711Z,12.60
2018-06-04T02:13:41.239Z,12.60
2018-06-04T02:16:10.002Z,12.50
2018-06-04T02:18:38.645Z,12.50
2018-06-04T02:21:07.198Z,12.60
2018-06-04T02:23:35.793Z,12.60
2018-06-04T02:26:04.409Z,12.50
2018-06-04T02:28:32.885Z,12.50
2018-06-04T02:31:01.633Z,12.50
2018-06-04T02:33:30.631Z,12.50
2018-06-04T02:35:59.157Z,12.50
2018-06-04T02:38:27.731Z,12.50
2018-06-04T02:40:57.129Z,12.60
2018-06-04T02:43:25.897Z,12.50
2018-06-04T02:45:54.575Z,12.40
2018-06-04T02:48:23.059Z,12.40
2018-06-04T02:50:51.798Z,12.40
2018-06-04T02:53:20.316Z,12.30
2018-06-04T02:55:48.916Z,12.30
2018-06-04T02:58:17.412Z,12.20
2018-06-04T03:00:45.913Z,12.20
2018-06-04T03:03:14.460Z,12.20
2018-06-04T03:05:43.332Z,12.10
2018-06-04T03:08:11.951Z,12.10
2018-06-04T03:10:40.562Z,12.20
2018-06-04T03:13:09.051Z,12.10
2018-06-04T03:15:37.584Z,12.10
2018-06-04T03:18:06.184Z,12.30
2018-06-04T03:20:34.777Z,12.40
2018-06-04T03:23:03.281Z,12.40
2018-06-04T03:25:31.837Z,12.30
2018-06-04T03:28:00.427Z,12.30
2018-06-04T03:30:28.993Z,12.20
2018-06-04T03:32:57.687Z,12.20
2018-06-04T03:35:26.237Z,12.20
2018-06-04T03:37:54.735Z,12.20
2018-06-04T03:40:23.787Z,12.20
2018-06-04T03:45:21.063Z,12.40
2018-06-04T03:47:49.715Z,12.40
2018-06-04T03:50:18.254Z,12.50
2018-06-04T03:52:46.800Z,12.60
2018-06-04T03:55:15.494Z,12.70
2018-06-04T04:00:12.431Z,12.60
2018-06-04T04:02:40.939Z,12.80
2018-06-04T04:05:09.621Z,12.80
2018-06-04T04:07:38.205Z,12.80
2018-06-04T04:10:06.747Z,12.80
2018-06-04T04:12:35.418Z,12.70
2018-06-04T04:15:03.979Z,12.80
2018-06-04T04:17:32.565Z,12.90
2018-06-04T04:20:01.082Z,12.90
2018-06-04T04:22:29.624Z,12.90
2018-06-04T04:24:58.194Z,13.00
2018-06-04T04:27:26.892Z,13.10
2018-06-04T04:29:55.386Z,13.30
2018-06-04T04:32:23.904Z,13.40
2018-06-04T04:34:52.603Z,13.50
2018-06-04T04:37:21.132Z,13.50
2018-06-04T04:39:49.711Z,13.60
2018-06-04T04:42:18.333Z,13.60
2018-06-04T04:44:46.830Z,13.70
2018-06-04T04:47:15.345Z,13.70
2018-06-04T04:49:43.855Z,13.80
2018-06-04T04:52:12.726Z,13.90
2018-06-04T04:54:41.249Z,13.90
2018-06-04T04:57:09.756Z,14.00
2018-06-04T04:59:38.309Z,14.10
2018-06-04T05:02:06.809Z,14.20
2018-06-04T05:04:35.357Z,14.30
2018-06-04T05:07:04.009Z,14.20
2018-06-04T05:09:32.560Z,14.20
2018-06-04T05:12:01.027Z,14.30
2018-06-04T05:14:29.656Z,14.30
2018-06-04T05:16:58.143Z,14.40
2018-06-04T05:19:26.710Z,14.40
2018-06-04T05:21:55.233Z,14.50
2018-06-04T05:24:23.865Z,14.70
2018-06-04T05:26:57.441Z,14.70
2018-06-04T05:29:26.060Z,15.00
2018-06-04T05:31:54.642Z,15.00
2018-06-04T05:34:23.052Z,15.10
2018-06-04T05:36:51.516Z,15.20
2018-06-04T05:39:20.137Z,15.20
2018-06-04T05:41:48.657Z,15.20
2018-06-04T05:44:17.880Z,15.30
2018-06-04T05:46:46.533Z,15.40
2018-06-04T05:49:15.040Z,15.50
2018-06-04T05:51:43.559Z,15.40
2018-06-04T05:54:12.305Z,15.50
2018-06-04T05:56:40.828Z,15.60
2018-06-04T05:59:09.490Z,15.80
2018-06-04T06:01:38.182Z,15.90
2018-06-04T06:04:06.792Z,15.90
2018-06-04T06:06:35.413Z,16.00
2018-06-04T06:09:06.358Z,16.00
2018-06-04T06:11:34.894Z,16.10
2018-06-04T06:14:03.711Z,16.10
2018-06-04T06:16:32.637Z,16.20
2018-06-04T06:19:01.411Z,16.30
2018-06-04T06:21:29.980Z,16.40
2018-06-04T06:23:58.745Z,16.50
2018-06-04T06:26:27.766Z,16.70
2018-06-04T06:28:56.320Z,16.80
2018-06-04T06:31:24.859Z,16.80
2018-06-04T06:33:53.565Z,16.80
2018-06-04T06:36:22.066Z,16.90
2018-06-04T06:38:50.630Z,17.00
2018-06-04T06:41:19.345Z,17.20
2018-06-04T06:43:47.866Z,17.30
2018-06-04T06:46:16.451Z,17.40
2018-06-04T06:48:45.078Z,17.60
2018-06-04T06:51:13.658Z,17.70
2018-06-04T06:53:42.194Z,17.80
2018-06-04T06:56:10.783Z,17.80
2018-06-04T06:58:39.290Z,18.00
2018-06-04T07:01:07.996Z,18.10
2018-06-04T07:03:36.551Z,18.20
2018-06-04T07:06:05.067Z,18.30
2018-06-04T07:08:33.820Z,18.40
2018-06-04T07:11:02.789Z,18.60
2018-06-04T07:13:31.477Z,18.70
2018-06-04T07:16:00.009Z,19.00
2018-06-04T07:18:28.831Z,19.00
2018-06-04T07:23:25.787Z,19.10
2018-06-04T07:25:54.345Z,19.30
2018-06-04T07:28:22.864Z,19.40
2018-06-04T07:30:51.394Z,19.40
2018-06-04T07:33:20.292Z,19.50
2018-06-04T07:35:48.840Z,19.60
2018-06-04T07:38:17.482Z,19.90
2018-06-04T07:40:46.928Z,20.30
2018-06-04T07:43:15.575Z,20.50
2018-06-04T07:45:44.109Z,20.60
2018-06-04T07:48:12.783Z,20.60
2018-06-04T07:50:41.356Z,20.70
2018-06-04T07:53:10.054Z,20.80
2018-06-04T07:55:38.695Z,20.90
2018-06-04T07:58:07.301Z,21.00
2018-06-04T08:00:35.837Z,21.00
2018-06-04T08:03:04.491Z,21.00
2018-06-04T08:05:33.049Z,21.20
2018-06-04T08:08:01.610Z,21.30
2018-06-04T08:10:30.236Z,21.30
2018-06-04T08:12:58.746Z,21.40
2018-06-04T08:15:27.351Z,21.40
2018-06-04T08:17:56.024Z,21.50
2018-06-04T08:20:24.847Z,21.50
2018-06-04T08:22:53.610Z,21.60
2018-06-04T08:25:22.211Z,21.80
2018-06-04T08:27:50.801Z,22.00
2018-06-04T08:32:47.855Z,21.80
2018-06-04T08:35:16.736Z,21.80
2018-06-04T08:37:45.304Z,21.90
2018-06-04T08:40:13.897Z,22.10
2018-06-04T08:42:42.493Z,22.40
2018-06-04T08:45:11.316Z,22.40
2018-06-04T08:47:40.395Z,22.60
2018-06-04T08:50:09.240Z,22.70
2018-06-04T08:52:38.057Z,23.10
2018-06-04T08:55:06.606Z,23.10
2018-06-04T08:57:35.110Z,22.90
2018-06-04T09:00:03.789Z,23.10
2018-06-04T09:02:32.736Z,23.30
2018-06-04T09:05:01.273Z,23.40
2018-06-04T09:07:29.864Z,23.60
2018-06-04T09:09:58.480Z,24.10
2018-06-04T09:14:55.697Z,24.40
2018-06-04T09:17:24.267Z,24.80
2018-06-04T09:19:52.807Z,24.90
2018-06-04T09:22:21.360Z,25.30
2018-06-04T09:24:50.095Z,25.80
2018-06-04T09:27:18.664Z,26.00
2018-06-04T09:29:47.354Z,25.90
2018-06-04T09:32:16.120Z,26.00
2018-06-04T09:34:44.729Z,26.10
2018-06-04T09:37:13.239Z,25.60
2018-06-04T09:39:41.854Z,25.70
2018-06-04T09:42:10.438Z,26.00
2018-06-04T09:44:38.985Z,26.50
2018-06-04T09:47:07.847Z,26.80
2018-06-04T09:49:36.609Z,27.30
2018-06-04T09:52:05.136Z,27.30
2018-06-04T09:54:33.704Z,27.40
2018-06-04T09:57:02.507Z,27.20
2018-06-04T09:59:31.075Z,27.10
2018-06-04T10:01:59.823Z,27.20
2018-06-04T10:04:28.374Z,27.50
2018-06-04T10:06:56.880Z,27.90
2018-06-04T10:09:25.773Z,28.20
2018-06-04T10:11:54.299Z,28.00
2018-06-04T10:14:22.899Z,27.50
2018-06-04T10:16:51.430Z,27.10
2018-06-04T10:19:20.211Z,26.90
2018-06-04T10:21:48.754Z,26.90
2018-06-04T10:24:17.542Z,26.80
2018-06-04T10:26:46.199Z,27.40
2018-06-04T10:29:15.047Z,28.10
2018-06-04T10:31:43.981Z,28.80
2018-06-04T10:34:12.902Z,29.30
2018-06-04T10:36:41.578Z,29.10
2018-06-04T10:39:10.060Z,27.90
2018-06-04T10:41:38.972Z,27.60
2018-06-04T10:44:07.660Z,27.50
2018-06-04T10:46:36.501Z,24.10
2018-06-04T10:49:05.110Z,28.30
2018-06-04T10:51:33.659Z,29.30
2018-06-04T10:54:02.373Z,29.80
2018-06-04T10:56:31.504Z,30.70
2018-06-04T10:59:00.405Z,31.80
2018-06-04T11:01:29.020Z,32.30
2018-06-04T11:03:57.547Z,32.70
2018-06-04T11:06:26.140Z,33.30
2018-06-04T11:08:54.913Z,33.50
2018-06-04T11:11:23.768Z,34.10
2018-06-04T11:13:52.711Z,34.30
2018-06-04T11:16:21.490Z,34.80
2018-06-04T11:18:50.211Z,35.00
2018-06-04T11:21:18.949Z,35.60
2018-06-04T11:23:47.545Z,35.50
2018-06-04T11:26:16.552Z,35.40
2018-06-04T11:28:45.159Z,35.40
2018-06-04T11:31:13.853Z,35.90
2018-06-04T11:33:42.961Z,36.00
2018-06-04T11:36:11.776Z,35.70
2018-06-04T11:38:40.648Z,35.40
2018-06-04T11:41:09.220Z,34.50
2018-06-04T11:43:37.743Z,33.10
2018-06-04T11:46:06.741Z,32.00
2018-06-04T11:48:35.464Z,30.90
2018-06-04T11:51:04.098Z,30.50
2018-06-04T11:53:32.895Z,30.00
2018-06-04T11:56:01.508Z,29.70
2018-06-04T11:58:30.235Z,30.40
2018-06-04T12:00:59.073Z,30.80
2018-06-04T12:03:27.994Z,30.80
2018-06-04T12:05:57.541Z,30.50
2018-06-04T12:08:26.308Z,30.60
2018-06-04T12:10:54.868Z,31.40
2018-06-04T12:13:23.502Z,32.00
2018-06-04T12:15:52.516Z,33.10
2018-06-04T12:18:21.253Z,34.30
2018-06-04T12:20:49.818Z,33.30
2018-06-04T12:23:18.612Z,32.40
2018-06-04T12:25:47.518Z,31.60
2018-06-04T12:28:16.086Z,31.00
2018-06-04T12:30:44.710Z,30.10
2018-06-04T12:33:13.593Z,29.70
2018-06-04T12:35:42.158Z,29.30
2018-06-04T12:38:10.824Z,28.80
2018-06-04T12:40:39.342Z,28.90
2018-06-04T12:43:08.055Z,28.70
2018-06-04T12:45:36.898Z,28.80
2018-06-04T12:48:05.912Z,29.60
2018-06-04T12:50:34.473Z,31.20
2018-06-04T12:53:03.033Z,31.80
2018-06-04T12:55:31.552Z,32.20
2018-06-04T12:58:00.170Z,32.60
2018-06-04T13:00:28.835Z,33.60
2018-06-04T13:02:57.346Z,33.30
2018-06-04T13:05:26.082Z,33.10
2018-06-04T13:07:54.898Z,33.20
2018-06-04T13:10:23.502Z,34.00
2018-06-04T13:12:52.297Z,34.90
2018-06-04T13:15:20.968Z,35.80
2018-06-04T13:17:49.570Z,36.60
2018-06-04T13:22:47.567Z,36.50
2018-06-04T13:25:16.102Z,35.50
2018-06-04T13:27:44.824Z,34.70
2018-06-04T13:30:13.606Z,33.60
2018-06-04T13:32:42.319Z,32.20
2018-06-04T13:35:11.196Z,30.60
2018-06-04T13:37:39.827Z,30.20
2018-06-04T13:40:08.537Z,30.20
2018-06-04T13:42:37.073Z,30.90
2018-06-04T13:45:05.994Z,31.70
2018-06-04T13:47:34.766Z,31.80
2018-06-04T13:50:03.567Z,31.10
2018-06-04T13:52:32.477Z,30.40
2018-06-04T13:55:01.220Z,29.70
2018-06-04T13:57:29.799Z,29.90
2018-06-04T13:59:58.563Z,30.30
2018-06-04T14:02:27.344Z,32.30
2018-06-04T14:04:56.106Z,34.00
2018-06-04T14:07:24.693Z,35.50
2018-06-04T14:09:53.280Z,35.30
2018-06-04T14:12:21.923Z,34.30
2018-06-04T14:14:50.601Z,33.90
2018-06-04T14:17:19.236Z,33.20
2018-06-04T14:19:48.147Z,32.70
2018-06-04T14:22:16.984Z,32.90
2018-06-04T14:24:45.572Z,33.90
2018-06-04T14:27:14.402Z,34.60
2018-06-04T14:29:43.339Z,35.40
2018-06-04T14:32:11.956Z,35.30
2018-06-04T14:34:40.756Z,34.70
2018-06-04T14:37:09.502Z,34.50
2018-06-04T14:39:38.091Z,33.20
2018-06-04T14:42:06.728Z,31.60
2018-06-04T14:47:03.723Z,29.90
2018-06-04T14:49:32.326Z,29.70
2018-06-04T14:52:01.093Z,30.70
2018-06-04T14:54:29.862Z,32.00
2018-06-04T14:56:58.613Z,33.30
2018-06-04T14:59:27.243Z,33.60
2018-06-04T15:01:55.970Z,34.80
2018-06-04T15:04:24.559Z,35.50
2018-06-04T15:06:53.310Z,36.20
2018-06-04T15:09:22.170Z,36.20
2018-06-04T15:11:50.847Z,36.20
2018-06-04T15:14:19.590Z,36.20
2018-06-04T15:16:48.570Z,36.90
2018-06-04T15:19:17.334Z,38.00
2018-06-04T15:21:46.738Z,37.40
2018-06-04T15:24:15.518Z,36.80
2018-06-04T15:26:44.683Z,35.90
2018-06-04T15:29:13.257Z,35.90
2018-06-04T15:31:41.873Z,36.90
2018-06-04T15:34:10.814Z,38.50
2018-06-04T15:36:39.765Z,37.10
2018-06-04T15:39:09.147Z,35.50
2018-06-04T15:41:37.781Z,36.40
2018-06-04T15:44:06.366Z,35.70
2018-06-04T15:46:35.128Z,36.50
2018-06-04T15:49:03.878Z,36.50
2018-06-04T15:51:32.630Z,36.30
2018-06-04T15:54:01.548Z,34.50
2018-06-04T15:56:30.505Z,33.50
2018-06-04T15:58:59.070Z,33.10
2018-06-04T16:01:27.707Z,31.90
2018-06-04T16:03:56.313Z,32.50
2018-06-04T16:08:53.643Z,31.00
2018-06-04T16:11:22.406Z,30.10
2018-06-04T16:13:51.206Z,29.10
2018-06-04T16:18:48.349Z,28.90
2018-06-04T16:21:17.241Z,28.60
2018-06-04T16:23:46.132Z,28.50
2018-06-04T16:26:14.957Z,27.80
2018-06-04T16:28:43.795Z,27.80
2018-06-04T16:31:12.749Z,28.10
2018-06-04T16:33:42.470Z,28.20
2018-06-04T16:36:11.468Z,27.80
2018-06-04T16:38:40.566Z,27.90
2018-06-04T16:41:09.240Z,27.90
2018-06-04T16:43:38.252Z,28.10
2018-06-04T16:46:07.055Z,28.10
2018-06-04T16:48:35.749Z,27.80
2018-06-04T16:51:04.547Z,27.80
2018-06-04T16:53:33.306Z,27.60
2018-06-04T16:56:02.042Z,27.00
2018-06-04T16:58:30.656Z,26.80
2018-06-04T17:00:59.585Z,26.40
2018-06-04T17:03:28.299Z,26.00
2018-06-04T17:05:57.005Z,25.80
2018-06-04T17:08:25.669Z,25.50
2018-06-04T17:10:54.440Z,25.30
2018-06-04T17:13:23.018Z,25.20
2018-06-04T17:15:52.070Z,25.40
2018-06-04T17:18:20.743Z,25.20
2018-06-04T17:20:50.334Z,25.20
2018-06-04T17:23:19.108Z,25.20
2018-06-04T17:25:47.949Z,25.30
2018-06-04T17:28:16.851Z,25.10
2018-06-04T17:30:45.599Z,24.90
2018-06-04T17:33:14.431Z,25.10
2018-06-04T17:35:43.357Z,24.90
2018-06-04T17:38:12.294Z,25.00
2018-06-04T17:40:41.055Z,24.90
2018-06-04T17:43:09.932Z,24.80
2018-06-04T17:45:38.733Z,24.90
2018-06-04T17:48:07.343Z,24.70
2018-06-04T17:50:36.250Z,24.80
2018-06-04T17:53:05.040Z,24.80
2018-06-04T17:55:33.622Z,24.60
2018-06-04T17:58:02.369Z,24.50
2018-06-04T18:00:31.473Z,24.40
2018-06-04T18:03:00.521Z,24.30
2018-06-04T18:05:29.130Z,24.40
2018-06-04T18:07:57.736Z,24.30
2018-06-04T18:10:26.622Z,24.00
2018-06-04T18:12:56.121Z,23.90
2018-06-04T18:15:24.996Z,23.90
2018-06-04T18:17:53.741Z,23.90
2018-06-04T18:20:22.630Z,23.70
2018-06-04T18:22:51.499Z,23.60
2018-06-04T18:25:20.364Z,23.50
2018-06-04T18:27:49.286Z,23.40
2018-06-04T18:30:18.480Z,23.20
2018-06-04T18:32:47.067Z,23.00
2018-06-04T18:35:15.703Z,23.10
2018-06-04T18:37:44.631Z,22.80
2018-06-04T18:40:13.732Z,22.60
2018-06-04T18:42:42.742Z,22.40
2018-06-04T18:45:11.566Z,22.50
2018-06-04T18:50:09.979Z,22.30
2018-06-04T18:52:38.601Z,22.30
2018-06-04T18:55:07.555Z,22.10
2018-06-04T18:57:36.239Z,21.90
2018-06-04T19:00:05.913Z,21.70
2018-06-04T19:02:34.561Z,21.60
2018-06-04T19:05:03.540Z,21.50
2018-06-04T19:07:32.848Z,21.40
2018-06-04T19:10:01.645Z,21.30
2018-06-04T19:12:30.543Z,21.20
2018-06-04T19:14:59.454Z,21.00
2018-06-04T19:17:28.508Z,20.90
2018-06-04T19:19:57.612Z,20.70
2018-06-04T19:22:26.665Z,20.60
2018-06-04T19:27:23.973Z,20.40
2018-06-04T19:29:53.155Z,20.30
2018-06-04T19:32:22.106Z,20.20
2018-06-04T19:34:50.730Z,20.00
2018-06-04T19:37:19.776Z,19.90
2018-06-04T19:39:49.152Z,18.70
2018-06-04T19:42:18.352Z,19.60
2018-06-04T19:44:48.147Z,19.60
2018-06-04T19:47:17.025Z,19.50
2018-06-04T19:49:45.873Z,19.40
2018-06-04T19:52:14.852Z,19.40
2018-06-04T19:54:43.878Z,19.40
2018-06-04T19:57:12.766Z,19.40
2018-06-04T19:59:41.558Z,19.30
2018-06-04T20:02:10.285Z,19.20
2018-06-04T20:04:39.242Z,19.10
2018-06-04T20:07:08.040Z,19.00
2018-06-04T20:09:41.818Z,18.90
2018-06-04T20:12:10.876Z,18.80
2018-06-04T20:14:39.848Z,18.70
2018-06-04T20:17:09.050Z,18.70
2018-06-04T20:19:37.693Z,18.60
2018-06-04T20:22:06.839Z,18.50
2018-06-04T20:24:35.785Z,18.50
2018-06-04T20:27:04.681Z,18.30
2018-06-04T20:29:33.570Z,18.30
2018-06-04T20:32:02.349Z,18.20
2018-06-04T20:34:31.023Z,18.10
2018-06-04T20:36:59.814Z,18.10
2018-06-04T20:39:28.566Z,18.10
2018-06-04T20:41:57.355Z,18.00
2018-06-04T20:44:26.340Z,18.00
2018-06-04T20:46:55.083Z,17.90
2018-06-04T20:49:24.256Z,17.80
2018-06-04T20:51:53.173Z,17.70
2018-06-04T20:54:21.909Z,17.60
2018-06-04T20:56:50.448Z,17.50
2018-06-04T20:59:19.359Z,17.50
2018-06-04T21:01:48.553Z,17.40
2018-06-04T21:04:17.175Z,17.30
2018-06-04T21:06:46.092Z,17.20
2018-06-04T21:09:14.713Z,17.20
2018-06-04T21:11:43.369Z,17.10
2018-06-04T21:14:12.359Z,17.00
2018-06-04T21:16:41.346Z,17.00
2018-06-04T21:19:09.872Z,16.90
2018-06-04T21:21:38.612Z,16.90
2018-06-04T21:24:07.633Z,16.80
2018-06-04T21:26:36.751Z,16.70
2018-06-04T21:29:05.434Z,16.70
2018-06-04T21:31:34.062Z,16.60
2018-06-04T21:34:02.605Z,16.60
2018-06-04T21:36:31.611Z,16.60
2018-06-04T21:39:00.167Z,16.50
2018-06-04T21:41:29.160Z,16.50
2018-06-04T21:43:57.968Z,16.40
2018-06-04T21:46:27.176Z,16.30
2018-06-04T21:48:55.889Z,16.30
2018-06-04T21:51:24.631Z,16.20
2018-06-04T21:53:53.261Z,16.20
2018-06-04T21:56:22.268Z,16.20
2018-06-04T21:58:51.047Z,16.30
2018-06-04T22:01:19.891Z,16.50
2018-06-04T22:03:48.768Z,16.40
2018-06-04T22:06:17.497Z,16.30
2018-06-04T22:08:46.160Z,16.20
2018-06-04T22:11:14.870Z,16.10
2018-06-04T22:13:43.398Z,16.00
2018-06-04T22:16:11.968Z,15.90
2018-06-04T22:18:40.805Z,15.80
2018-06-04T22:21:09.406Z,15.70
2018-06-04T22:23:38.142Z,15.70
2018-06-04T22:26:06.757Z,15.60
2018-06-04T22:28:35.519Z,15.50
2018-06-04T22:31:04.133Z,15.50
2018-06-04T22:33:32.702Z,15.40
2018-06-04T22:36:01.424Z,15.40
2018-06-04T22:38:30.141Z,15.40
2018-06-04T22:41:06.827Z,15.40
2018-06-04T22:43:35.775Z,15.40
2018-06-04T22:46:04.543Z,15.30
2018-06-04T22:48:33.451Z,15.20
2018-06-04T22:51:02.031Z,15.20
2018-06-04T22:53:30.899Z,15.10
2018-06-04T22:55:59.586Z,15.10
2018-06-04T22:58:28.168Z,15.00
2018-06-04T23:00:56.669Z,15.00
2018-06-04T23:03:25.309Z,15.20
2018-06-04T23:05:54.038Z,15.40
2018-06-04T23:08:22.680Z,15.40
2018-06-04T23:10:51.422Z,15.40
2018-06-04T23:13:20.460Z,15.20
2018-06-04T23:15:49.306Z,15.20
2018-06-04T23:18:18.205Z,15.10
2018-06-04T23:20:46.968Z,15.10
2018-06-04T23:23:15.829Z,15.00
2018-06-04T23:25:44.412Z,15.00
2018-06-04T23:28:13.100Z,15.10
2018-06-04T23:30:41.695Z,15.20
2018-06-04T23:33:10.440Z,15.30
2018-06-04T23:35:38.946Z,15.30
2018-06-04T23:38:07.619Z,15.40
2018-06-04T23:40:36.126Z,15.40
2018-06-04T23:43:04.750Z,15.30
2018-06-04T23:45:33.281Z,15.40
2018-06-04T23:48:02.929Z,15.40
2018-06-04T23:50:31.475Z,15.50
2018-06-04T23:53:00.006Z,15.50
2018-06-04T23:55:28.620Z,15.50
2018-06-04T23:57:57.258Z,15.50
